Aviation Digital Data Service (ADDS)

Output produced by METARs form (1931 UTC 18 January 2018)
found at http://aviationweather.gov/adds/metars/
 
METAR text: KPVF 181915Z AUTO 19005KT 10SM CLR 11/05 A3013 RMK AO1
Conditions at: KPVF (PLACERVILLE , CA, US) observed 1915 UTC 18 January 2018
Temperature: 11.0°C (52°F)
Dewpoint: 5.0°C (41°F) [RH = 66%]
Pressure (altimeter): 30.13 inches Hg (1020.4 mb)
Winds: from the S (190 degrees) at 6 MPH (5 knots; 2.6 m/s)
Visibility: 10 or more miles (16+ km)
Ceiling: at least 12,000 feet AGL
Clouds: sky clear below 12,000 feet AGL
Weather: automated observation with no human augmentation;
there may or may not be significant weather present at this time